createdAt,value
2023-07-24T00:01:24.459Z,97.25
2023-07-24T00:03:51.106Z,97.12
2023-07-24T00:06:17.650Z,97.27
2023-07-24T00:08:44.197Z,97.83
2023-07-24T00:11:10.949Z,97.33
2023-07-24T00:13:37.629Z,97.21
2023-07-24T00:16:11.426Z,97.82
2023-07-24T00:18:37.971Z,97.35
2023-07-24T00:21:04.489Z,97.45
2023-07-24T00:23:31.036Z,97.04
2023-07-24T00:25:57.587Z,96.51
2023-07-24T00:28:24.173Z,96.06
2023-07-24T00:30:50.807Z,96.00
2023-07-24T00:33:18.016Z,95.89
2023-07-24T00:35:44.832Z,96.47
2023-07-24T00:38:12.654Z,96.54
2023-07-24T00:40:39.263Z,97.13
2023-07-24T00:43:05.955Z,97.98
2023-07-24T00:45:32.899Z,97.66
2023-07-24T00:48:01.249Z,98.28
2023-07-24T00:50:29.913Z,98.91
2023-07-24T00:52:57.267Z,98.80
2023-07-24T00:55:24.022Z,99.00
2023-07-24T00:57:50.790Z,99.10
2023-07-24T01:00:17.642Z,99.31
2023-07-24T01:02:45.264Z,99.87
2023-07-24T01:05:15.875Z,100.00
2023-07-24T01:07:42.774Z,99.51
2023-07-24T01:10:11.034Z,100.00
2023-07-24T01:12:41.891Z,99.57
2023-07-24T01:15:15.368Z,99.76
2023-07-24T01:17:49.173Z,100.00
2023-07-24T01:20:18.752Z,99.91
2023-07-24T01:23:07.534Z,99.65
2023-07-24T01:25:37.698Z,100.00
2023-07-24T01:28:10.497Z,100.00
2023-07-24T01:30:37.029Z,100.00
2023-07-24T01:33:03.760Z,100.00
2023-07-24T01:35:31.580Z,100.00
2023-07-24T01:38:01.206Z,100.00
2023-07-24T01:40:27.801Z,100.00
2023-07-24T01:42:54.531Z,100.00
2023-07-24T01:45:21.172Z,100.00
2023-07-24T01:47:47.736Z,100.00
2023-07-24T01:50:14.469Z,100.00
2023-07-24T01:52:41.107Z,100.00
2023-07-24T01:55:08.153Z,100.00
2023-07-24T01:57:34.709Z,100.00
2023-07-24T02:00:01.250Z,100.00
2023-07-24T02:02:27.896Z,100.00
2023-07-24T02:04:55.648Z,100.00
2023-07-24T02:07:22.923Z,100.00
2023-07-24T02:09:49.527Z,100.00
2023-07-24T02:12:16.053Z,100.00
2023-07-24T02:14:42.525Z,100.00
2023-07-24T02:17:11.202Z,100.00
2023-07-24T02:19:37.964Z,100.00
2023-07-24T02:22:06.376Z,100.00
2023-07-24T02:24:35.632Z,100.00
2023-07-24T02:27:02.611Z,100.00
2023-07-24T02:29:31.904Z,100.00
2023-07-24T02:31:59.426Z,100.00
2023-07-24T02:34:27.207Z,100.00
2023-07-24T02:36:54.330Z,100.00
2023-07-24T02:39:21.588Z,100.00
2023-07-24T02:41:49.163Z,100.00
2023-07-24T02:44:15.762Z,100.00
2023-07-24T02:46:42.350Z,100.00
2023-07-24T02:49:08.929Z,100.00
2023-07-24T02:51:35.396Z,100.00
2023-07-24T02:54:01.867Z,100.00
2023-07-24T02:56:28.583Z,100.00
2023-07-24T02:58:55.287Z,100.00
2023-07-24T03:01:21.792Z,100.00
2023-07-24T03:03:48.396Z,100.00
2023-07-24T03:06:14.966Z,100.00
2023-07-24T03:08:41.486Z,100.00
2023-07-24T03:11:08.667Z,100.00
2023-07-24T03:13:35.270Z,100.00
2023-07-24T03:16:01.913Z,100.00
2023-07-24T03:18:28.571Z,100.00
2023-07-24T03:20:55.123Z,100.00
2023-07-24T03:23:21.714Z,100.00
2023-07-24T03:25:48.266Z,100.00
2023-07-24T03:28:14.884Z,100.00
2023-07-24T03:30:41.440Z,100.00
2023-07-24T03:33:08.420Z,100.00
2023-07-24T03:35:35.057Z,100.00
2023-07-24T03:38:01.570Z,100.00
2023-07-24T03:40:28.469Z,100.00
2023-07-24T03:42:55.052Z,100.00
2023-07-24T03:45:22.399Z,100.00
2023-07-24T03:47:48.964Z,100.00
2023-07-24T03:50:15.715Z,100.00
2023-07-24T03:52:42.237Z,100.00
2023-07-24T03:55:09.157Z,100.00
2023-07-24T03:57:35.935Z,100.00
2023-07-24T04:00:03.522Z,100.00
2023-07-24T04:02:39.241Z,100.00
2023-07-24T04:05:05.877Z,100.00
2023-07-24T04:07:32.381Z,100.00
2023-07-24T04:09:58.904Z,100.00
2023-07-24T04:12:25.439Z,100.00
2023-07-24T04:14:51.963Z,100.00
2023-07-24T04:17:18.670Z,100.00
2023-07-24T04:19:45.331Z,100.00
2023-07-24T04:22:11.880Z,100.00
2023-07-24T04:24:38.457Z,100.00
2023-07-24T04:27:05.401Z,100.00
2023-07-24T04:29:31.967Z,100.00
2023-07-24T04:31:58.421Z,100.00
2023-07-24T04:34:24.884Z,100.00
2023-07-24T04:36:51.446Z,100.00
2023-07-24T04:39:17.940Z,100.00
2023-07-24T04:41:44.511Z,100.00
2023-07-24T04:44:11.084Z,100.00
2023-07-24T04:46:37.618Z,100.00
2023-07-24T04:49:04.233Z,100.00
2023-07-24T04:51:30.779Z,100.00
2023-07-24T04:53:57.310Z,100.00
2023-07-24T04:56:23.891Z,100.00
2023-07-24T04:58:50.466Z,100.00
2023-07-24T05:01:17.007Z,100.00
2023-07-24T05:03:43.495Z,100.00
2023-07-24T05:06:10.088Z,100.00
2023-07-24T05:08:36.687Z,100.00
2023-07-24T05:11:03.164Z,100.00
2023-07-24T05:13:29.770Z,100.00
2023-07-24T05:15:56.283Z,100.00
2023-07-24T05:18:22.895Z,100.00
2023-07-24T05:20:52.788Z,100.00
2023-07-24T05:23:19.798Z,100.00
2023-07-24T05:25:46.411Z,100.00
2023-07-24T05:28:12.909Z,100.00
2023-07-24T05:30:39.482Z,100.00
2023-07-24T05:33:06.101Z,100.00
2023-07-24T05:35:32.819Z,100.00
2023-07-24T05:37:59.381Z,100.00
2023-07-24T05:40:25.955Z,100.00
2023-07-24T05:42:52.614Z,100.00
2023-07-24T05:45:19.273Z,100.00
2023-07-24T05:47:45.791Z,100.00
2023-07-24T05:50:14.474Z,100.00
2023-07-24T05:52:41.659Z,100.00
2023-07-24T05:55:08.877Z,100.00
2023-07-24T05:57:35.430Z,100.00
2023-07-24T06:00:02.537Z,100.00
2023-07-24T06:02:37.956Z,100.00
2023-07-24T06:05:04.983Z,100.00
2023-07-24T06:07:34.349Z,99.73
2023-07-24T06:10:00.887Z,97.81
2023-07-24T06:12:27.420Z,97.25
2023-07-24T06:14:54.053Z,96.03
2023-07-24T06:17:20.608Z,92.52
2023-07-24T06:19:47.231Z,90.40
2023-07-24T06:22:13.750Z,89.10
2023-07-24T06:24:40.532Z,89.61
2023-07-24T06:27:09.914Z,88.00
2023-07-24T06:29:38.056Z,89.36
2023-07-24T06:32:06.222Z,89.08
2023-07-24T06:34:32.780Z,89.80
2023-07-24T06:37:09.144Z,90.76
2023-07-24T06:39:44.635Z,89.77
2023-07-24T06:42:11.224Z,88.02
2023-07-24T06:44:37.797Z,87.45
2023-07-24T06:47:04.552Z,87.95
2023-07-24T06:49:31.122Z,86.46
2023-07-24T06:51:57.660Z,86.60
2023-07-24T06:54:24.206Z,87.11
2023-07-24T06:56:50.720Z,87.07
2023-07-24T06:59:17.291Z,85.98
2023-07-24T07:01:43.897Z,84.77
2023-07-24T07:04:10.451Z,84.07
2023-07-24T07:06:39.080Z,85.06
2023-07-24T07:09:06.569Z,84.77
2023-07-24T07:11:33.211Z,83.12
2023-07-24T07:13:59.765Z,83.89
2023-07-24T07:16:26.454Z,82.78
2023-07-24T07:18:52.980Z,84.07
2023-07-24T07:21:19.627Z,83.11
2023-07-24T07:23:47.498Z,82.74
2023-07-24T07:26:14.107Z,82.60
2023-07-24T07:28:40.657Z,82.02
2023-07-24T07:31:07.341Z,81.06
2023-07-24T07:33:33.828Z,79.98
2023-07-24T07:36:00.306Z,79.04
2023-07-24T07:38:26.872Z,79.52
2023-07-24T07:40:53.405Z,80.33
2023-07-24T07:43:20.063Z,81.03
2023-07-24T07:45:47.761Z,80.31
2023-07-24T07:48:14.351Z,77.88
2023-07-24T07:50:40.865Z,78.40
2023-07-24T07:53:08.909Z,77.34
2023-07-24T07:55:35.414Z,77.04
2023-07-24T07:58:01.896Z,78.37
2023-07-24T08:00:28.520Z,76.86
2023-07-24T08:02:55.113Z,77.37
2023-07-24T08:05:21.952Z,77.33
2023-07-24T08:07:48.665Z,78.32
2023-07-24T08:10:17.367Z,77.80
2023-07-24T08:12:44.830Z,78.55
2023-07-24T08:15:12.401Z,77.91
2023-07-24T08:17:39.108Z,77.27
2023-07-24T08:20:06.224Z,77.06
2023-07-24T08:22:32.959Z,76.79
2023-07-24T08:24:59.646Z,75.50
2023-07-24T08:27:26.251Z,75.59
2023-07-24T08:29:53.914Z,75.19
2023-07-24T08:32:20.964Z,74.61
2023-07-24T08:34:47.696Z,73.47
2023-07-24T08:37:14.244Z,73.96
2023-07-24T08:39:40.887Z,72.67
2023-07-24T08:42:14.241Z,73.68
2023-07-24T08:44:41.215Z,72.87
2023-07-24T08:47:11.324Z,72.76
2023-07-24T08:49:40.070Z,73.55
2023-07-24T08:52:07.796Z,73.59
2023-07-24T08:54:37.651Z,73.07
2023-07-24T08:57:07.472Z,69.92
2023-07-24T08:59:34.930Z,68.39
2023-07-24T09:02:01.694Z,68.14
2023-07-24T09:04:28.422Z,67.58
2023-07-24T09:06:59.163Z,67.55
2023-07-24T09:09:31.599Z,66.61
2023-07-24T09:12:00.158Z,66.01
2023-07-24T09:14:33.155Z,64.37
2023-07-24T09:17:07.610Z,65.06
2023-07-24T09:19:34.813Z,61.83
2023-07-24T09:22:11.498Z,63.97
2023-07-24T09:24:39.241Z,65.74
2023-07-24T09:27:08.218Z,65.29
2023-07-24T09:29:35.321Z,64.60
2023-07-24T09:32:02.097Z,65.74
2023-07-24T09:34:28.859Z,65.04
2023-07-24T09:36:55.380Z,65.13
2023-07-24T09:39:29.375Z,65.61
2023-07-24T09:42:04.258Z,66.77
2023-07-24T09:44:32.331Z,65.17
2023-07-24T09:47:06.564Z,66.07
2023-07-24T09:49:46.914Z,66.93
2023-07-24T09:52:15.276Z,66.41
2023-07-24T09:55:12.350Z,66.64
2023-07-24T09:57:39.925Z,65.61
2023-07-24T10:00:08.436Z,65.08
2023-07-24T10:02:36.297Z,63.58
2023-07-24T10:05:03.005Z,63.91
2023-07-24T10:07:30.648Z,62.59
2023-07-24T10:09:57.908Z,63.23
2023-07-24T10:12:28.888Z,63.58
2023-07-24T10:14:56.496Z,63.09
2023-07-24T10:17:37.228Z,63.87
2023-07-24T10:20:09.175Z,61.95
2023-07-24T10:22:38.694Z,60.02
2023-07-24T10:25:05.685Z,59.33
2023-07-24T10:27:32.399Z,60.53
2023-07-24T10:30:11.888Z,61.28
2023-07-24T10:32:53.067Z,61.68
2023-07-24T10:35:23.813Z,62.23
2023-07-24T10:38:00.400Z,62.40
2023-07-24T10:40:26.911Z,62.48
2023-07-24T10:43:01.082Z,61.67
2023-07-24T10:45:27.694Z,61.13
2023-07-24T10:47:55.108Z,59.60
2023-07-24T10:50:21.649Z,60.37
2023-07-24T10:52:48.503Z,61.60
2023-07-24T10:55:14.967Z,57.65
2023-07-24T10:57:41.686Z,58.49
2023-07-24T11:00:08.885Z,57.82
2023-07-24T11:02:35.550Z,59.15
2023-07-24T11:05:02.402Z,58.27
2023-07-24T11:07:34.066Z,59.62
2023-07-24T11:10:00.553Z,58.99
2023-07-24T11:12:31.718Z,59.32
2023-07-24T11:14:59.985Z,59.67
2023-07-24T11:17:38.250Z,59.44
2023-07-24T11:20:09.154Z,59.51
2023-07-24T11:22:35.770Z,60.05
2023-07-24T11:25:02.831Z,60.16
2023-07-24T11:27:29.309Z,60.52
2023-07-24T11:29:55.794Z,60.04
2023-07-24T11:32:23.147Z,59.93
2023-07-24T11:34:51.338Z,58.24
2023-07-24T11:37:21.519Z,58.03
2023-07-24T11:40:09.344Z,58.09
2023-07-24T11:42:40.436Z,57.54
2023-07-24T11:45:10.724Z,58.56
2023-07-24T11:47:44.455Z,59.92
2023-07-24T11:50:11.289Z,61.49
2023-07-24T11:52:51.392Z,61.88
2023-07-24T11:55:31.337Z,63.31
2023-07-24T11:57:59.096Z,64.44
2023-07-24T12:00:25.813Z,65.46
2023-07-24T12:02:52.493Z,65.18
2023-07-24T12:05:19.487Z,66.61
2023-07-24T12:07:47.208Z,66.36
2023-07-24T12:10:15.323Z,65.76
2023-07-24T12:12:47.354Z,65.62
2023-07-24T12:15:15.410Z,65.30
2023-07-24T12:17:42.534Z,65.14
2023-07-24T12:20:13.497Z,63.86
2023-07-24T12:22:40.232Z,64.29
2023-07-24T12:25:07.615Z,63.55
2023-07-24T12:27:34.534Z,62.27
2023-07-24T12:30:01.677Z,61.47
2023-07-24T12:32:28.312Z,61.13
2023-07-24T12:34:55.283Z,61.28
2023-07-24T12:37:21.849Z,61.81
2023-07-24T12:39:49.233Z,62.59
2023-07-24T12:42:16.975Z,61.91
2023-07-24T12:44:44.134Z,63.03
2023-07-24T12:47:12.099Z,62.14
2023-07-24T12:49:38.936Z,63.83
2023-07-24T12:52:06.695Z,64.26
2023-07-24T12:54:46.343Z,65.30
2023-07-24T12:57:19.971Z,66.80
2023-07-24T12:59:46.605Z,70.87
2023-07-24T13:02:13.233Z,73.37
2023-07-24T13:04:40.067Z,73.26
2023-07-24T13:07:06.669Z,76.04
2023-07-24T13:09:33.169Z,75.51
2023-07-24T13:11:59.843Z,77.82
2023-07-24T13:14:26.365Z,78.33
2023-07-24T13:16:53.101Z,79.34
2023-07-24T13:19:21.747Z,80.03
2023-07-24T13:21:48.459Z,80.70
2023-07-24T13:24:15.324Z,80.51
2023-07-24T13:26:42.054Z,81.81
2023-07-24T13:29:08.604Z,84.00
2023-07-24T13:31:36.122Z,83.91
2023-07-24T13:34:03.259Z,84.63
2023-07-24T13:36:30.178Z,84.85
2023-07-24T13:38:57.022Z,85.88
2023-07-24T13:41:26.144Z,85.71
2023-07-24T13:43:52.851Z,86.09
2023-07-24T13:46:19.828Z,84.59
2023-07-24T13:48:46.426Z,86.83
2023-07-24T13:51:13.034Z,86.07
2023-07-24T13:53:39.700Z,86.47
2023-07-24T13:56:06.660Z,85.04
2023-07-24T13:58:33.203Z,85.08
2023-07-24T14:00:59.880Z,85.52
2023-07-24T14:03:30.280Z,86.64
2023-07-24T14:05:57.908Z,86.02
2023-07-24T14:08:24.650Z,85.72
2023-07-24T14:10:51.627Z,86.34
2023-07-24T14:13:18.467Z,86.08
2023-07-24T14:15:45.016Z,87.64
2023-07-24T14:18:11.587Z,86.70
2023-07-24T14:20:41.538Z,88.40
2023-07-24T14:23:11.695Z,88.22
2023-07-24T14:25:38.278Z,90.13
2023-07-24T14:28:05.008Z,89.49
2023-07-24T14:30:31.564Z,87.83
2023-07-24T14:32:58.034Z,88.47
2023-07-24T14:35:24.565Z,87.32
2023-07-24T14:37:51.108Z,87.66
2023-07-24T14:40:18.102Z,87.22
2023-07-24T14:42:44.800Z,86.33
2023-07-24T14:45:11.506Z,84.04
2023-07-24T14:47:38.063Z,86.57
2023-07-24T14:50:05.052Z,82.95
2023-07-24T14:52:31.569Z,84.11
2023-07-24T14:54:58.114Z,80.36
2023-07-24T14:57:26.515Z,79.28
2023-07-24T14:59:53.680Z,81.40
2023-07-24T15:02:20.335Z,79.39
2023-07-24T15:04:47.039Z,79.64
2023-07-24T15:07:13.610Z,79.80
2023-07-24T15:09:40.161Z,79.11
2023-07-24T15:12:06.912Z,78.26
2023-07-24T15:14:33.470Z,75.97
2023-07-24T15:17:00.090Z,75.53
2023-07-24T15:19:26.693Z,76.35
2023-07-24T15:21:53.347Z,76.06
2023-07-24T15:24:20.367Z,74.22
2023-07-24T15:26:47.218Z,74.42
2023-07-24T15:29:18.862Z,75.21
2023-07-24T15:31:46.530Z,74.43
2023-07-24T15:34:13.290Z,74.59
2023-07-24T15:36:39.849Z,73.69
2023-07-24T15:39:06.513Z,75.33
2023-07-24T15:41:33.537Z,75.23
2023-07-24T15:44:00.514Z,73.98
2023-07-24T15:46:29.934Z,75.14
2023-07-24T15:48:57.539Z,75.19
2023-07-24T15:51:25.605Z,74.98
2023-07-24T15:53:52.131Z,74.03
2023-07-24T15:56:18.888Z,74.71
2023-07-24T15:58:47.548Z,74.28
2023-07-24T16:01:14.191Z,74.41
2023-07-24T16:03:40.787Z,74.92
2023-07-24T16:06:07.258Z,74.47
2023-07-24T16:08:33.755Z,75.61
2023-07-24T16:11:00.324Z,75.17
2023-07-24T16:13:26.904Z,75.20
2023-07-24T16:15:53.613Z,75.59
2023-07-24T16:18:24.440Z,75.38
2023-07-24T16:20:51.257Z,75.83
2023-07-24T16:23:17.858Z,76.69
2023-07-24T16:25:44.475Z,77.50
2023-07-24T16:28:11.013Z,76.79
2023-07-24T16:30:37.589Z,76.81
2023-07-24T16:33:04.298Z,77.10
2023-07-24T16:35:32.227Z,77.77
2023-07-24T16:37:58.850Z,77.01
2023-07-24T16:40:25.385Z,76.56
2023-07-24T16:42:56.636Z,76.64
2023-07-24T16:47:52.932Z,76.80
2023-07-24T16:50:19.663Z,78.10
2023-07-24T16:52:46.234Z,78.47
2023-07-24T16:55:12.780Z,79.12
2023-07-24T16:57:39.447Z,78.81
2023-07-24T17:00:08.523Z,80.23
2023-07-24T17:02:36.693Z,80.78
2023-07-24T17:05:03.477Z,80.24
2023-07-24T17:07:30.012Z,81.12
2023-07-24T17:09:56.516Z,81.24
2023-07-24T17:12:23.096Z,82.03
2023-07-24T17:14:49.755Z,81.66
2023-07-24T17:17:16.328Z,81.36
2023-07-24T17:19:43.071Z,82.29
2023-07-24T17:22:09.894Z,83.18
2023-07-24T17:24:36.865Z,82.85
2023-07-24T17:27:03.766Z,82.54
2023-07-24T17:29:30.334Z,82.39
2023-07-24T17:31:56.948Z,81.62
2023-07-24T17:34:23.540Z,81.03
2023-07-24T17:36:50.114Z,81.12
2023-07-24T17:39:16.822Z,79.69
2023-07-24T17:41:43.275Z,80.54
2023-07-24T17:44:09.840Z,79.97
2023-07-24T17:46:36.643Z,79.38
2023-07-24T17:49:03.298Z,79.47
2023-07-24T17:51:31.117Z,79.38
2023-07-24T17:54:00.631Z,79.74
2023-07-24T17:56:27.114Z,79.63
2023-07-24T17:58:53.721Z,79.77
2023-07-24T18:01:22.024Z,78.72
2023-07-24T18:03:48.814Z,79.21
2023-07-24T18:06:15.464Z,79.63
2023-07-24T18:08:41.983Z,79.22
2023-07-24T18:11:08.655Z,80.01
2023-07-24T18:13:35.158Z,80.64
2023-07-24T18:16:01.752Z,81.20
2023-07-24T18:18:28.746Z,81.19
2023-07-24T18:20:55.706Z,80.71
2023-07-24T18:23:22.261Z,80.11
2023-07-24T18:25:48.759Z,80.30
2023-07-24T18:28:17.190Z,80.13
2023-07-24T18:30:43.784Z,80.58
2023-07-24T18:33:11.313Z,80.97
2023-07-24T18:35:38.046Z,81.86
2023-07-24T18:38:04.598Z,79.73
2023-07-24T18:40:31.204Z,79.45
2023-07-24T18:42:57.769Z,78.61
2023-07-24T18:45:24.400Z,78.62
2023-07-24T18:47:50.967Z,79.22
2023-07-24T18:50:17.490Z,79.63
2023-07-24T18:52:44.017Z,78.88
2023-07-24T18:55:10.638Z,79.60
2023-07-24T18:57:37.198Z,76.36
2023-07-24T19:00:04.289Z,76.02
2023-07-24T19:02:30.909Z,76.27
2023-07-24T19:04:57.644Z,76.20
2023-07-24T19:07:24.116Z,76.89
2023-07-24T19:09:50.595Z,77.24
2023-07-24T19:12:19.994Z,77.35
2023-07-24T19:14:46.520Z,77.24
2023-07-24T19:17:13.037Z,76.61
2023-07-24T19:19:39.557Z,75.92
2023-07-24T19:22:06.868Z,75.59
2023-07-24T19:24:33.605Z,75.79
2023-07-24T19:27:00.702Z,75.51
2023-07-24T19:29:27.221Z,75.56
2023-07-24T19:31:53.917Z,75.56
2023-07-24T19:34:20.524Z,75.12
2023-07-24T19:36:47.132Z,75.03
2023-07-24T19:39:14.045Z,74.05
2023-07-24T19:41:40.616Z,74.98
2023-07-24T19:44:07.306Z,75.19
2023-07-24T19:46:33.904Z,74.90
2023-07-24T19:49:01.227Z,75.52
2023-07-24T19:51:27.789Z,75.47
2023-07-24T19:53:54.449Z,75.71
2023-07-24T19:56:21.035Z,76.11
2023-07-24T19:58:47.566Z,76.10
2023-07-24T20:01:14.101Z,76.65
2023-07-24T20:03:40.773Z,77.32
2023-07-24T20:06:08.530Z,76.18
2023-07-24T20:08:35.563Z,77.35
2023-07-24T20:11:07.617Z,77.83
2023-07-24T20:13:34.990Z,77.23
2023-07-24T20:16:02.308Z,77.60
2023-07-24T20:18:28.986Z,78.09
2023-07-24T20:20:56.285Z,78.17
2023-07-24T20:23:23.336Z,78.79
2023-07-24T20:25:51.684Z,79.13
2023-07-24T20:28:19.506Z,79.51
2023-07-24T20:30:46.455Z,80.01
2023-07-24T20:33:13.529Z,80.32
2023-07-24T20:35:40.071Z,81.12
2023-07-24T20:38:07.627Z,81.43
2023-07-24T20:40:35.007Z,81.65
2023-07-24T20:43:05.600Z,81.90
2023-07-24T20:45:32.300Z,82.28
2023-07-24T20:47:59.033Z,81.83
2023-07-24T20:50:25.855Z,82.04
2023-07-24T20:52:52.406Z,82.47
2023-07-24T20:55:18.982Z,82.59
2023-07-24T20:57:45.541Z,83.55
2023-07-24T21:00:12.732Z,82.96
2023-07-24T21:02:39.293Z,84.15
2023-07-24T21:05:06.316Z,84.01
2023-07-24T21:07:32.866Z,83.68
2023-07-24T21:09:59.400Z,83.90
2023-07-24T21:12:26.048Z,83.95
2023-07-24T21:14:52.642Z,84.17
2023-07-24T21:17:19.551Z,84.58
2023-07-24T21:19:46.163Z,84.75
2023-07-24T21:22:14.155Z,84.74
2023-07-24T21:24:40.754Z,84.95
2023-07-24T21:27:07.439Z,85.67
2023-07-24T21:29:33.990Z,85.90
2023-07-24T21:32:00.530Z,85.80
2023-07-24T21:34:27.134Z,85.76
2023-07-24T21:36:53.687Z,86.29
2023-07-24T21:39:20.429Z,86.46
2023-07-24T21:41:46.970Z,86.63
2023-07-24T21:44:13.526Z,86.39
2023-07-24T21:46:40.141Z,86.45
2023-07-24T21:49:06.744Z,86.60
2023-07-24T21:51:33.706Z,86.62
2023-07-24T21:54:00.556Z,86.92
2023-07-24T21:56:27.242Z,86.96
2023-07-24T21:58:53.750Z,87.06
2023-07-24T22:01:21.373Z,87.24
2023-07-24T22:03:48.617Z,87.74
2023-07-24T22:06:15.255Z,87.66
2023-07-24T22:08:41.964Z,88.24
2023-07-24T22:11:12.977Z,87.70
2023-07-24T22:13:41.516Z,87.83
2023-07-24T22:16:08.291Z,87.91
2023-07-24T22:18:34.948Z,87.71
2023-07-24T22:21:01.916Z,88.31
2023-07-24T22:23:28.774Z,88.24
2023-07-24T22:25:55.927Z,88.39
2023-07-24T22:28:22.596Z,88.35
2023-07-24T22:30:49.952Z,88.60
2023-07-24T22:33:16.804Z,88.98
2023-07-24T22:35:43.309Z,89.44
2023-07-24T22:38:09.903Z,89.14
2023-07-24T22:40:36.435Z,89.30
2023-07-24T22:43:03.132Z,89.18
2023-07-24T22:45:29.724Z,89.32
2023-07-24T22:47:56.479Z,89.93
2023-07-24T22:50:23.277Z,89.71
2023-07-24T22:52:49.955Z,89.82
2023-07-24T22:55:19.552Z,89.95
2023-07-24T22:57:46.131Z,89.94
2023-07-24T23:00:13.128Z,89.92
2023-07-24T23:02:39.681Z,90.34
2023-07-24T23:05:06.861Z,90.75
2023-07-24T23:07:33.382Z,90.51
2023-07-24T23:09:59.904Z,91.30
2023-07-24T23:12:26.556Z,91.08
2023-07-24T23:14:53.202Z,91.26
2023-07-24T23:17:19.813Z,90.56
2023-07-24T23:19:46.404Z,90.62
2023-07-24T23:22:13.066Z,90.33
2023-07-24T23:24:39.664Z,90.67
2023-07-24T23:27:06.333Z,91.30
2023-07-24T23:29:32.850Z,91.68
2023-07-24T23:31:59.393Z,92.25
2023-07-24T23:34:26.077Z,92.24
2023-07-24T23:36:52.707Z,92.55
2023-07-24T23:39:19.455Z,91.71
2023-07-24T23:41:46.017Z,92.12
2023-07-24T23:44:12.554Z,92.55
2023-07-24T23:46:41.118Z,92.74
2023-07-24T23:49:07.775Z,93.15
2023-07-24T23:51:34.617Z,93.38
2023-07-24T23:54:01.437Z,93.78
2023-07-24T23:56:28.033Z,93.80
2023-07-24T23:58:54.557Z,94.59
